Time;durP1;ratioP1;P1;durP2;ratioP2;P2;SDS_P1;SDS_P2;PMS_P1;PMS_P2;Temp;Humidity;BMP_temperature;BMP_pressure;BME280_temperature;BME280_humidity;BME280_pressure;Samples;Min_cycle;Max_cycle;Signal;HPM_P1;HPM_P2
2022/03/12 00:00:29;;;;;;;10.73;5.80;;;;;;;-5.09;96.12;97807.53;5075229;28;20989;-37
2022/03/12 00:02:57;;;;;;;17.83;7.10;;;;;;;-4.94;95.53;97807.22;5075123;28;20451;-37
2022/03/12 00:05:27;;;;;;;16.77;8.50;;;;;;;-4.82;94.78;97815.00;5075073;28;20448;-39
2022/03/12 00:07:54;;;;;;;16.13;8.57;;;;;;;-4.71;93.76;97816.78;5075313;28;20450;-38
2022/03/12 00:10:23;;;;;;;7.73;5.30;;;;;;;-4.64;93.17;97802.44;5074886;28;20448;-37
2022/03/12 00:12:53;;;;;;;14.47;8.10;;;;;;;-4.54;92.77;97809.41;5074860;28;20979;-38
2022/03/12 00:15:20;;;;;;;9.03;4.67;;;;;;;-4.44;92.22;97808.69;5074893;28;20455;-37
2022/03/12 00:17:48;;;;;;;11.37;5.93;;;;;;;-4.36;91.50;97808.94;5075138;28;20467;-37
2022/03/12 00:20:18;;;;;;;13.90;7.83;;;;;;;-4.27;91.01;97808.22;5075113;28;20475;-39
2022/03/12 00:22:51;;;;;;;12.27;7.93;;;;;;;-4.24;90.35;97800.19;5074708;28;20448;-37
2022/03/12 00:25:22;;;;;;;12.90;9.50;;;;;;;-4.14;89.67;97816.69;5073614;28;20441;-38
2022/03/12 00:27:51;;;;;;;13.90;7.67;;;;;;;-4.14;89.54;97802.91;5074927;28;20517;-38
2022/03/12 00:30:21;;;;;;;10.43;6.90;;;;;;;-4.01;89.00;97807.97;5075713;28;20799;-37
2022/03/12 00:32:48;;;;;;;10.40;6.00;;;;;;;-4.02;88.89;97801.97;5074444;28;20494;-40
2022/03/12 00:35:16;;;;;;;11.30;6.20;;;;;;;-3.92;88.57;97807.25;5074453;28;20504;-40
2022/03/12 00:37:43;;;;;;;12.27;5.70;;;;;;;-3.87;88.34;97806.88;5074422;28;20450;-40
2022/03/12 00:40:12;;;;;;;8.73;5.37;;;;;;;-3.86;87.94;97809.34;5074408;28;20444;-40
2022/03/12 00:42:39;;;;;;;18.30;6.73;;;;;;;-3.84;87.73;97804.88;5074578;28;20595;-39
2022/03/12 00:45:08;;;;;;;9.03;5.77;;;;;;;-3.80;87.43;97793.31;5074017;28;20478;-40
2022/03/12 00:47:35;;;;;;;8.20;5.27;;;;;;;-3.76;87.64;97794.72;5074224;28;20446;-40
2022/03/12 00:50:03;;;;;;;16.53;6.43;;;;;;;-3.73;87.35;97804.84;5074437;28;20448;-40
2022/03/12 00:52:30;;;;;;;39.97;13.90;;;;;;;-3.69;87.09;97805.44;5074453;28;20674;-40
2022/03/12 00:54:57;;;;;;;51.50;14.03;;;;;;;-3.66;86.90;97804.34;5074359;28;20444;-40
2022/03/12 00:57:25;;;;;;;49.93;16.00;;;;;;;-3.66;86.26;97802.56;5074088;28;20976;-40
2022/03/12 00:59:53;;;;;;;48.40;17.03;;;;;;;-3.65;85.98;97798.22;5074319;28;20447;-38
2022/03/12 01:02:21;;;;;;;42.17;14.83;;;;;;;-3.63;85.53;97798.94;5073948;28;20946;-40
2022/03/12 01:04:50;;;;;;;22.87;12.10;;;;;;;-3.64;85.05;97787.72;5074236;28;20916;-40
2022/03/12 01:07:17;;;;;;;67.00;27.67;;;;;;;-3.63;84.77;97796.34;5074133;28;20505;-41
2022/03/12 01:09:45;;;;;;;38.93;18.30;;;;;;;-3.67;84.75;97805.31;5074181;28;20497;-40
2022/03/12 01:12:12;;;;;;;34.20;13.63;;;;;;;-3.68;84.46;97796.69;5073706;28;20538;-41
2022/03/12 01:14:41;;;;;;;26.30;12.80;;;;;;;-3.70;84.29;97795.97;5073834;28;20539;-38
2022/03/12 01:17:08;;;;;;;30.60;15.07;;;;;;;-3.69;83.99;97799.41;5073726;28;20475;-37
2022/03/12 01:19:38;;;;;;;33.70;13.17;;;;;;;-3.80;83.97;97784.69;5073753;28;20448;-37
2022/03/12 01:22:06;;;;;;;28.13;14.13;;;;;;;-3.69;83.86;97794.22;5073660;28;20454;-37
2022/03/12 01:24:34;;;;;;;29.90;16.17;;;;;;;-3.87;83.57;97768.78;5073914;28;20444;-39
2022/03/12 01:27:01;;;;;;;26.73;13.13;;;;;;;-3.77;83.74;97789.63;5073571;28;20470;-39
2022/03/12 01:29:28;;;;;;;36.57;15.53;;;;;;;-3.71;84.00;97799.53;5073895;28;20451;-39
2022/03/12 01:31:55;;;;;;;23.90;13.20;;;;;;;-3.71;83.77;97797.75;5073842;28;20488;-37
2022/03/12 01:34:23;;;;;;;32.20;14.37;;;;;;;-3.69;83.32;97799.41;5073852;28;20443;-39
2022/03/12 01:36:51;;;;;;;17.60;13.93;;;;;;;-3.68;83.55;97782.88;5073194;28;20447;-37
2022/03/12 01:39:19;;;;;;;28.87;11.77;;;;;;;-3.71;83.32;97792.56;5074049;28;20458;-38
2022/03/12 01:41:46;;;;;;;30.23;13.67;;;;;;;-3.69;83.20;97799.41;5073441;28;20447;-40
2022/03/12 01:44:15;;;;;;;26.57;12.77;;;;;;;-3.79;82.91;97794.94;5073990;28;20443;-37
2022/03/12 01:46:46;;;;;;;18.80;11.37;;;;;;;-3.84;82.60;97781.50;5073344;28;20919;-37
2022/03/12 01:49:18;;;;;;;17.10;10.10;;;;;;;-3.71;82.61;97789.97;5073739;28;20451;-36
2022/03/12 01:51:47;;;;;;;18.53;9.67;;;;;;;-3.69;82.58;97796.81;5073565;28;20432;-37
2022/03/12 01:54:20;;;;;;;16.83;9.80;;;;;;;-3.70;82.19;97803.75;5073293;28;20444;-37
2022/03/12 01:56:47;;;;;;;18.37;8.80;;;;;;;-3.77;82.24;97793.03;5073340;28;20436;-37
2022/03/12 01:59:15;;;;;;;17.33;8.83;;;;;;;-3.69;82.44;97799.41;5073546;28;20447;-37
2022/03/12 02:01:43;;;;;;;12.00;7.03;;;;;;;-3.69;82.17;97799.41;5073222;28;20451;-36
2022/03/12 02:04:11;;;;;;;12.20;8.00;;;;;;;-3.70;82.12;97793.38;5073228;28;20439;-37
2022/03/12 02:06:45;;;;;;;11.80;7.10;;;;;;;-3.84;82.31;97778.91;5073171;28;20486;-37
2022/03/12 02:09:15;;;;;;;12.13;6.33;;;;;;;-3.72;82.26;97796.13;5073141;28;20444;-37
2022/03/12 02:11:51;;;;;;;15.87;7.57;;;;;;;-3.72;82.10;97790.13;5073075;28;20486;-36
2022/03/12 02:14:19;;;;;;;13.23;7.63;;;;;;;-3.73;81.94;97791.88;5073411;28;20435;-37
2022/03/12 02:16:50;;;;;;;10.00;5.67;;;;;;;-3.72;81.87;97795.31;5073129;28;20444;-38
2022/03/12 02:19:18;;;;;;;15.93;6.70;;;;;;;-3.79;82.12;97794.94;5073443;28;20432;-37
2022/03/12 02:21:53;;;;;;;8.83;4.53;;;;;;;-3.74;81.63;97800.59;5073125;28;20443;-36
2022/03/12 02:24:24;;;;;;;10.57;6.70;;;;;;;-3.75;81.38;97806.72;5073065;28;20439;-40
2022/03/12 02:26:52;;;;;;;14.50;6.10;;;;;;;-3.77;81.38;97819.00;5073149;28;20434;-40
2022/03/12 02:29:22;;;;;;;6.63;4.63;;;;;;;-3.82;81.44;97810.75;5072967;28;20501;-41
2022/03/12 02:31:51;;;;;;;6.90;4.10;;;;;;;-3.88;81.01;97811.25;5073281;28;20447;-41
2022/03/12 02:34:23;;;;;;;7.30;4.60;;;;;;;-3.92;81.62;97807.25;5072882;28;20447;-37
2022/03/12 02:36:52;;;;;;;11.63;4.23;;;;;;;-3.90;81.48;97805.34;5073224;28;20493;-37
2022/03/12 02:39:22;;;;;;;7.33;3.47;;;;;;;-3.89;81.84;97803.56;5073169;28;20508;-37
2022/03/12 02:41:50;;;;;;;7.30;4.47;;;;;;;-3.85;81.91;97812.75;5073393;28;20451;-37
2022/03/12 02:44:20;;;;;;;10.23;4.60;;;;;;;-3.87;81.96;97814.66;5072853;28;20772;-37
2022/03/12 02:47:14;;;;;;;19.10;7.80;;;;;;;-3.98;81.73;97816.34;5073179;28;20783;-37
2022/03/12 02:49:49;;;;;;;18.50;8.63;;;;;;;-4.01;81.44;97820.94;5075711;28;20439;-37
2022/03/12 02:52:18;;;;;;;9.70;6.20;;;;;;;-4.07;81.73;97819.63;5076410;28;20439;-37
2022/03/12 02:54:47;;;;;;;15.57;7.60;;;;;;;-4.12;81.49;97825.19;5076447;28;20498;-39
2022/03/12 02:57:15;;;;;;;17.17;8.20;;;;;;;-4.29;81.45;97799.72;5076661;28;20796;-38
2022/03/12 02:59:44;;;;;;;24.40;8.73;;;;;;;-4.18;81.66;97822.25;5076356;28;20450;-38
2022/03/12 03:02:13;;;;;;;20.83;8.23;;;;;;;-4.23;81.39;97816.59;5076260;28;20454;-36
2022/03/12 03:04:41;;;;;;;28.10;9.50;;;;;;;-4.24;80.83;97823.53;5076543;28;20443;-38
2022/03/12 03:07:10;;;;;;;26.87;10.87;;;;;;;-4.29;80.67;97814.47;5076500;28;20522;-37
2022/03/12 03:09:38;;;;;;;22.07;10.67;;;;;;;-4.34;80.52;97822.63;5076114;28;20440;-37
2022/03/12 03:12:09;;;;;;;21.83;7.77;;;;;;;-4.36;80.52;97832.28;5076016;28;20906;-38
2022/03/12 03:14:42;;;;;;;14.97;6.33;;;;;;;-4.37;80.55;97835.78;5076353;28;20443;-37
2022/03/12 03:17:11;;;;;;;10.50;4.67;;;;;;;-4.41;80.17;97835.22;5076127;28;20460;-39
2022/03/12 03:19:39;;;;;;;9.20;3.80;;;;;;;-4.43;80.11;97831.06;5076374;28;20451;-37
2022/03/12 03:22:07;;;;;;;7.60;4.20;;;;;;;-4.43;80.36;97836.25;5076286;28;20462;-38
2022/03/12 03:24:35;;;;;;;7.60;4.27;;;;;;;-4.46;79.24;97833.91;5076193;28;20436;-39
2022/03/12 03:27:03;;;;;;;10.23;3.47;;;;;;;-4.50;79.16;97840.25;5075874;28;20436;-37
2022/03/12 03:29:33;;;;;;;5.80;3.33;;;;;;;-4.56;79.21;97833.75;5076109;28;20459;-37
2022/03/12 03:32:02;;;;;;;12.23;5.30;;;;;;;-4.62;78.74;97837.66;5075757;28;20440;-38
2022/03/12 03:34:31;;;;;;;21.37;9.53;;;;;;;-4.78;78.63;97821.59;5075887;28;20519;-37
2022/03/12 03:36:59;;;;;;;26.07;9.10;;;;;;;-4.70;78.99;97849.53;5075657;28;20478;-38
2022/03/12 03:39:26;;;;;;;21.27;10.43;;;;;;;-4.74;78.38;97838.56;5075906;28;20441;-37
2022/03/12 03:41:53;;;;;;;34.60;14.27;;;;;;;-4.77;78.72;97838.81;5075503;28;20448;-37
2022/03/12 03:44:27;;;;;;;18.70;8.03;;;;;;;-4.79;78.76;97843.28;5075634;28;20470;-38
2022/03/12 03:46:55;;;;;;;19.57;8.20;;;;;;;-4.83;79.08;97840.09;5075805;28;20872;-40
2022/03/12 03:49:24;;;;;;;28.20;10.00;;;;;;;-4.85;79.28;97841.97;5075523;28;20444;-41
2022/03/12 03:51:51;;;;;;;11.50;7.80;;;;;;;-4.81;78.97;97843.41;5075289;28;20945;-37
2022/03/12 03:54:18;;;;;;;10.60;6.40;;;;;;;-4.83;79.12;97841.88;5075547;28;20495;-37
2022/03/12 03:56:46;;;;;;;19.37;7.63;;;;;;;-4.82;79.03;97843.50;5075304;28;20446;-38
2022/03/12 03:59:13;;;;;;;18.23;7.97;;;;;;;-4.84;79.17;97847.97;5075029;28;20830;-37
2022/03/12 04:01:41;;;;;;;14.90;7.00;;;;;;;-4.82;80.08;97843.50;5075219;28;20446;-38
2022/03/12 04:04:12;;;;;;;16.13;7.70;;;;;;;-4.81;79.31;97852.94;5075086;28;20954;-37
2022/03/12 04:06:40;;;;;;;11.53;7.03;;;;;;;-4.86;79.06;97849.84;5075155;28;20439;-40
2022/03/12 04:09:08;;;;;;;15.17;6.27;;;;;;;-4.89;78.63;97850.91;5075010;28;20501;-37
2022/03/12 04:11:38;;;;;;;7.20;5.07;;;;;;;-4.91;78.81;97846.78;5074929;28;20490;-38
2022/03/12 04:14:05;;;;;;;8.27;4.67;;;;;;;-4.95;78.04;97856.53;5075157;28;20542;-37
2022/03/12 04:16:33;;;;;;;7.80;4.20;;;;;;;-4.98;78.53;97855.00;5074891;28;20443;-38
2022/03/12 04:19:05;;;;;;;9.43;5.23;;;;;;;-5.05;78.11;97856.41;5074878;28;20443;-37
2022/03/12 04:21:34;;;;;;;7.67;4.03;;;;;;;-5.08;78.32;97864.38;5074831;28;20489;-37
2022/03/12 04:24:02;;;;;;;12.80;3.60;;;;;;;-5.13;78.13;97866.47;5074788;28;20440;-37
2022/03/12 04:26:30;;;;;;;4.73;3.70;;;;;;;-5.21;77.50;97874.78;5074642;28;20527;-37
2022/03/12 04:28:58;;;;;;;13.13;4.23;;;;;;;-5.27;77.61;97877.84;5074649;28;20807;-36
2022/03/12 04:31:26;;;;;;;4.30;3.30;;;;;;;-5.32;77.59;97881.69;5074804;28;20793;-40
2022/03/12 04:33:53;;;;;;;4.30;2.63;;;;;;;-5.45;78.28;97874.81;5074369;28;20492;-36
2022/03/12 04:36:20;;;;;;;5.07;3.30;;;;;;;-5.31;78.59;97885.94;5074829;28;20459;-36
2022/03/12 04:38:49;;;;;;;8.20;4.80;;;;;;;-5.29;79.12;97891.81;5074425;28;20551;-36
2022/03/12 04:41:19;;;;;;;7.53;5.60;;;;;;;-5.24;78.63;97884.56;5074375;28;20866;-37
2022/03/12 04:43:49;;;;;;;8.37;5.30;;;;;;;-5.25;78.36;97894.09;5074351;28;20447;-37
2022/03/12 04:46:16;;;;;;;9.33;4.00;;;;;;;-5.27;78.29;97887.38;5074179;28;20494;-40
2022/03/12 04:48:43;;;;;;;6.67;3.30;;;;;;;-5.22;78.08;97893.06;5074506;28;20455;-41
2022/03/12 04:51:11;;;;;;;5.90;3.47;;;;;;;-5.26;77.97;97894.22;5074226;28;20448;-41
2022/03/12 04:53:39;;;;;;;8.83;4.10;;;;;;;-5.25;78.17;97901.03;5074027;28;20520;-41
2022/03/12 04:56:09;;;;;;;13.43;6.23;;;;;;;-5.31;78.23;97885.94;5074085;28;20443;-41
2022/03/12 04:58:36;;;;;;;13.73;7.03;;;;;;;-5.25;77.42;97893.25;5073981;28;20459;-40
2022/03/12 05:01:05;;;;;;;11.63;7.03;;;;;;;-5.25;77.30;97901.03;5073944;28;20535;-40
2022/03/12 05:03:32;;;;;;;17.93;9.67;;;;;;;-5.23;77.40;97904.34;5073977;28;20959;-40
2022/03/12 05:06:02;;;;;;;26.80;11.03;;;;;;;-5.21;78.21;97902.47;5073856;28;20448;-41
2022/03/12 05:08:35;;;;;;;19.37;12.37;;;;;;;-5.16;77.74;97915.94;5074167;28;20448;-38
2022/03/12 05:11:03;;;;;;;15.23;9.00;;;;;;;-5.13;77.29;97909.69;5073290;28;20904;-37
2022/03/12 05:13:31;;;;;;;20.60;9.03;;;;;;;-5.12;77.37;97909.56;5073741;28;20582;-36
2022/03/12 05:16:02;;;;;;;24.33;11.40;;;;;;;-5.10;76.76;97919.81;5073769;28;20482;-37
2022/03/12 05:18:30;;;;;;;24.47;14.10;;;;;;;-5.13;77.24;97928.63;5073804;28;20463;-36
2022/03/12 05:20:58;;;;;;;16.23;8.87;;;;;;;-5.11;76.87;97938.91;5074039;28;20475;-37
2022/03/12 05:23:26;;;;;;;18.70;9.47;;;;;;;-5.17;76.57;97927.19;5074493;28;20454;-37
2022/03/12 05:25:53;;;;;;;16.60;6.30;;;;;;;-5.32;76.20;97915.34;5073699;28;20851;-36
2022/03/12 05:28:26;;;;;;;10.50;6.53;;;;;;;-5.20;76.06;97946.38;5073608;28;20444;-38
2022/03/12 05:30:58;;;;;;;9.20;5.37;;;;;;;-5.32;74.67;97943.84;5073874;28;20443;-37
2022/03/12 05:33:26;;;;;;;14.90;9.20;;;;;;;-5.59;74.51;97962.97;5073459;28;20978;-38
2022/03/12 05:35:55;;;;;;;38.50;19.23;;;;;;;-5.85;74.85;97960.41;5073520;28;20480;-37
2022/03/12 05:38:23;;;;;;;31.57;12.00;;;;;;;-6.03;76.11;97951.34;5073553;28;20534;-40
2022/03/12 05:40:50;;;;;;;21.63;13.40;;;;;;;-5.98;77.98;97938.91;5073447;28;20447;-40
2022/03/12 05:43:18;;;;;;;23.73;11.57;;;;;;;-5.66;78.42;97964.31;5073820;28;20442;-41
2022/03/12 05:45:47;;;;;;;15.80;9.30;;;;;;;-5.48;77.54;97960.44;5073330;28;20550;-40
2022/03/12 05:48:17;;;;;;;26.63;12.33;;;;;;;-5.29;77.07;97966.91;5073282;28;20868;-40
2022/03/12 05:50:45;;;;;;;36.83;16.90;;;;;;;-5.29;76.12;97956.56;5073635;28;20444;-39
2022/03/12 05:53:14;;;;;;;33.83;15.57;;;;;;;-5.10;76.01;97985.38;5073242;28;20448;-40
2022/03/12 05:55:42;;;;;;;30.10;14.83;;;;;;;-4.95;76.71;97976.53;5073414;28;20444;-40
2022/03/12 05:58:10;;;;;;;22.43;13.73;;;;;;;-4.76;76.62;97977.78;5073293;28;20476;-41
2022/03/12 06:00:39;;;;;;;13.63;8.13;;;;;;;-4.55;76.39;97991.78;5073207;28;20818;-40
2022/03/12 06:03:08;;;;;;;7.27;6.57;;;;;;;-4.33;78.22;97985.84;5073549;28;20815;-40
2022/03/12 06:05:40;;;;;;;15.20;8.10;;;;;;;-4.03;77.30;97994.88;5073552;28;20565;-40
2022/03/12 06:08:07;;;;;;;31.17;14.63;;;;;;;-3.76;75.41;97985.97;5073274;28;20511;-41
2022/03/12 06:10:37;;;;;;;24.83;11.40;;;;;;;-3.53;74.80;97997.16;5073210;28;20447;-40
2022/03/12 06:13:06;;;;;;;15.17;8.80;;;;;;;-3.25;74.46;97992.41;5086148;28;20504;-40
2022/03/12 06:15:39;;;;;;;16.50;10.47;;;;;;;-2.94;74.05;98004.66;5092801;28;20486;-41
2022/03/12 06:18:08;;;;;;;11.20;6.43;;;;;;;-2.69;72.49;97995.72;5093214;28;21002;-40
2022/03/12 06:20:37;;;;;;;15.70;10.77;;;;;;;-2.36;72.57;97998.31;5093466;28;20512;-38
2022/03/12 06:23:05;;;;;;;167.67;54.80;;;;;;;-1.88;72.02;98008.22;5095352;28;20447;-39
2022/03/12 06:25:34;;;;;;;69.23;24.10;;;;;;;-1.35;70.60;98002.88;5097250;28;20451;-41
2022/03/12 06:28:01;;;;;;;38.10;22.93;;;;;;;-1.04;67.15;98005.44;5097562;28;20493;-40
2022/03/12 06:30:29;;;;;;;26.37;13.60;;;;;;;-0.73;65.55;98021.00;5097079;28;20537;-37
2022/03/12 06:32:57;;;;;;;9.73;4.73;;;;;;;-0.71;64.81;98021.69;5097046;28;20431;-38
2022/03/12 06:35:26;;;;;;;12.73;6.20;;;;;;;-0.45;64.64;98015.00;5097266;28;20494;-39
2022/03/12 06:37:56;;;;;;;20.60;8.53;;;;;;;-0.27;64.96;98004.69;5097768;28;20924;-39
2022/03/12 06:40:28;;;;;;;13.47;6.30;;;;;;;-0.06;63.40;98022.00;5096952;28;20450;-39
2022/03/12 06:42:57;;;;;;;10.90;6.20;;;;;;;0.08;63.78;98018.13;5097201;28;20427;-38
2022/03/12 06:45:24;;;;;;;17.30;9.00;;;;;;;0.30;63.98;98025.66;5096665;28;20485;-39
2022/03/12 06:47:52;;;;;;;13.63;7.27;;;;;;;0.47;62.31;98021.44;5096677;28;20944;-39
2022/03/12 06:50:22;;;;;;;15.97;7.97;;;;;;;0.66;62.26;98019.75;5096732;28;20443;-37
2022/03/12 06:52:50;;;;;;;13.10;6.70;;;;;;;0.97;60.10;98028.16;5096956;28;20443;-38
2022/03/12 06:55:21;;;;;;;10.77;6.80;;;;;;;1.13;59.51;98024.91;5096530;28;20483;-38
2022/03/12 06:57:51;;;;;;;14.93;7.73;;;;;;;1.21;58.21;98031.03;5096549;28;20453;-38
2022/03/12 07:00:21;;;;;;;11.87;5.50;;;;;;;1.30;59.17;98044.22;5096586;28;20811;-37
2022/03/12 07:02:48;;;;;;;16.70;6.20;;;;;;;1.33;57.97;98028.22;5096508;28;20431;-37
2022/03/12 07:05:16;;;;;;;7.77;5.10;;;;;;;1.57;58.04;98028.47;5096372;28;20834;-37
2022/03/12 07:07:44;;;;;;;15.97;6.37;;;;;;;1.76;55.79;98019.63;5096723;28;20497;-38
2022/03/12 07:10:11;;;;;;;8.70;7.13;;;;;;;1.86;55.95;98030.03;5097030;28;20447;-38
2022/03/12 07:12:42;;;;;;;10.90;5.90;;;;;;;1.89;55.66;98021.88;5096407;28;20447;-37
2022/03/12 07:15:09;;;;;;;17.43;6.20;;;;;;;2.15;57.34;98005.38;5096507;28;20478;-37
2022/03/12 07:17:37;;;;;;;11.03;4.73;;;;;;;2.34;53.99;98012.22;5096334;28;20530;-37
2022/03/12 07:20:05;;;;;;;16.50;7.60;;;;;;;2.44;54.25;98005.06;5096456;28;20470;-38
2022/03/12 07:22:33;;;;;;;7.60;5.17;;;;;;;2.63;54.57;98011.91;5096129;28;20449;-37
2022/03/12 07:25:00;;;;;;;18.37;7.83;;;;;;;2.77;54.02;98003.44;5096029;28;20930;-37
2022/03/12 07:27:28;;;;;;;12.00;7.03;;;;;;;2.91;53.29;97998.59;5096305;28;20438;-37
2022/03/12 07:30:00;;;;;;;18.10;9.40;;;;;;;3.06;51.79;98004.88;5096037;28;20454;-37
2022/03/12 07:32:28;;;;;;;17.37;9.80;;;;;;;3.22;52.63;98004.91;5096241;28;20906;-36
2022/03/12 07:34:56;;;;;;;9.57;5.93;;;;;;;3.39;50.28;98012.84;5095291;28;21030;-37
2022/03/12 07:37:23;;;;;;;27.00;14.00;;;;;;;3.31;50.77;98016.25;5095916;28;20934;-36
2022/03/12 07:39:51;;;;;;;11.10;7.27;;;;;;;3.48;52.61;98011.84;5095797;28;20441;-39
2022/03/12 07:42:18;;;;;;;16.27;7.30;;;;;;;3.50;51.85;98015.13;5095613;28;20447;-39
2022/03/12 07:44:46;;;;;;;17.30;8.90;;;;;;;3.40;52.14;98002.19;5095132;28;20558;-40
2022/03/12 07:47:14;;;;;;;16.23;6.90;;;;;;;3.54;50.49;98021.72;5094311;28;20518;-39
2022/03/12 07:49:42;;;;;;;16.73;8.00;;;;;;;3.80;51.85;98026.03;5095723;28;20449;-39
2022/03/12 07:52:10;;;;;;;29.90;9.80;;;;;;;3.78;50.51;98028.81;5095602;28;20434;-39
2022/03/12 07:54:37;;;;;;;20.70;12.70;;;;;;;3.85;51.40;98023.72;5095846;28;21073;-40
2022/03/12 07:57:06;;;;;;;13.57;7.97;;;;;;;3.58;49.71;98017.78;5096393;28;20470;-39
2022/03/12 07:59:34;;;;;;;19.80;9.83;;;;;;;3.59;51.34;98023.84;5095432;28;20447;-41
2022/03/12 08:02:02;;;;;;;18.20;8.70;;;;;;;3.74;51.44;98026.66;5095670;28;20435;-40
2022/03/12 08:04:33;;;;;;;8.20;5.77;;;;;;;3.68;50.03;98038.66;5081717;28;20456;-40
2022/03/12 08:07:02;;;;;;;20.37;7.07;;;;;;;3.60;50.15;98021.06;5090059;28;20860;-39
2022/03/12 08:09:29;;;;;;;9.10;7.00;;;;;;;3.64;51.35;98022.41;5085627;28;20494;-39
2022/03/12 08:11:57;;;;;;;13.90;6.90;;;;;;;3.45;51.21;98006.94;5075333;28;20457;-39
2022/03/12 08:14:25;;;;;;;15.67;8.50;;;;;;;3.42;50.48;98025.63;5075188;28;20494;-40
2022/03/12 08:16:52;;;;;;;19.23;11.67;;;;;;;3.12;48.84;98027.84;5074901;28;20443;-40
2022/03/12 08:19:21;;;;;;;8.67;6.87;;;;;;;2.48;51.68;98023.94;5075073;28;20448;-37
2022/03/12 08:21:52;;;;;;;10.37;5.73;;;;;;;2.34;53.83;98013.03;5074798;28;20444;-37
2022/03/12 08:24:21;;;;;;;10.43;5.80;;;;;;;2.35;53.97;98019.13;5086476;28;20496;-38
2022/03/12 08:26:49;;;;;;;8.00;5.10;;;;;;;2.44;53.18;98021.63;5095231;28;20439;-39
2022/03/12 08:29:18;;;;;;;9.43;4.97;;;;;;;2.17;52.07;97998.16;5094786;28;20522;-38
2022/03/12 08:31:46;;;;;;;11.70;5.77;;;;;;;2.43;52.31;98021.75;5094796;28;20537;-38
2022/03/12 08:34:14;;;;;;;9.10;4.70;;;;;;;2.97;51.17;98018.91;5095013;28;20510;-36
2022/03/12 08:36:42;;;;;;;17.00;9.33;;;;;;;3.03;52.13;98005.16;5094629;28;20438;-36
2022/03/12 08:39:13;;;;;;;10.87;5.67;;;;;;;2.62;51.73;98020.72;5094916;28;20446;-37
2022/03/12 08:41:40;;;;;;;4.70;4.27;;;;;;;2.76;49.42;98020.16;5094612;28;20430;-38
2022/03/12 08:44:09;;;;;;;11.33;4.80;;;;;;;2.30;50.33;98021.34;5094593;28;20488;-37
2022/03/12 08:46:36;;;;;;;25.13;12.97;;;;;;;2.30;53.23;98019.53;5093586;28;20434;-37
2022/03/12 08:49:04;;;;;;;10.40;6.00;;;;;;;1.79;50.16;98026.38;5094495;28;20443;-36
2022/03/12 08:51:31;;;;;;;7.73;5.43;;;;;;;1.88;49.54;98007.13;5094433;28;20435;-37
2022/03/12 08:53:58;;;;;;;6.50;4.23;;;;;;;1.88;46.69;97999.28;5094229;28;20446;-36
2022/03/12 08:56:27;;;;;;;13.53;6.20;;;;;;;2.54;46.54;98007.56;5094343;28;20439;-36
2022/03/12 08:58:55;;;;;;;10.73;4.70;;;;;;;2.74;45.71;98008.19;5094552;28;20443;-36
2022/03/12 09:01:22;;;;;;;11.97;4.70;;;;;;;2.33;46.58;98010.59;5094550;28;20443;-39
2022/03/12 09:03:49;;;;;;;10.13;6.10;;;;;;;2.10;46.94;98015.50;5094232;28;20482;-36
2022/03/12 09:06:18;;;;;;;9.27;5.53;;;;;;;2.00;47.35;98005.94;5094119;28;20815;-37
2022/03/12 09:08:45;;;;;;;8.90;5.13;;;;;;;1.92;47.38;98000.63;5094145;28;20855;-37
2022/03/12 09:11:15;;;;;;;5.97;4.10;;;;;;;1.97;49.98;98005.41;5094272;28;20447;-38
2022/03/12 09:13:45;;;;;;;6.07;3.63;;;;;;;1.99;48.73;98006.06;5094055;28;20442;-37
2022/03/12 09:16:13;;;;;;;5.33;4.13;;;;;;;2.14;48.60;98015.03;5094202;28;20486;-37
2022/03/12 09:18:41;;;;;;;10.50;5.83;;;;;;;2.38;49.12;98019.59;5093866;28;20478;-37
2022/03/12 09:21:09;;;;;;;9.67;5.67;;;;;;;2.33;45.37;98021.06;5094292;28;20817;-39
2022/03/12 09:23:36;;;;;;;10.57;6.07;;;;;;;1.81;44.90;98011.34;5094025;28;20946;-37
2022/03/12 09:26:04;;;;;;;11.23;8.77;;;;;;;1.40;44.47;98035.34;5093916;28;20511;-37
2022/03/12 09:28:32;;;;;;;6.40;4.20;;;;;;;1.10;43.73;98023.41;5093835;28;20443;-37
2022/03/12 09:31:00;;;;;;;10.93;6.40;;;;;;;1.12;45.29;98029.31;5094048;28;20446;-37
2022/03/12 09:33:28;;;;;;;6.50;5.90;;;;;;;1.20;45.97;98024.16;5093645;28;20450;-37
2022/03/12 09:35:55;;;;;;;14.93;6.47;;;;;;;1.40;47.03;98029.28;5093549;28;20494;-37
2022/03/12 09:38:23;;;;;;;11.87;5.20;;;;;;;1.62;44.37;98026.22;5093672;28;20802;-37
2022/03/12 09:40:50;;;;;;;13.93;6.70;;;;;;;1.77;45.73;98020.47;5093564;28;20441;-37
2022/03/12 09:43:18;;;;;;;26.83;14.20;;;;;;;2.11;47.29;98022.38;5093588;28;20446;-37
2022/03/12 09:45:45;;;;;;;23.17;11.53;;;;;;;2.15;45.15;98019.31;5093275;28;20558;-38
2022/03/12 09:48:14;;;;;;;7.17;5.00;;;;;;;2.21;46.94;98015.25;5093533;28;20443;-38
2022/03/12 09:50:42;;;;;;;9.00;4.77;;;;;;;2.00;45.66;98016.41;5091476;28;20443;-39
2022/03/12 09:53:09;;;;;;;6.30;4.13;;;;;;;1.72;47.04;98014.84;5074029;28;20444;-38
2022/03/12 09:55:36;;;;;;;13.07;6.90;;;;;;;1.61;45.70;98011.50;5073273;28;20991;-37
2022/03/12 09:58:03;;;;;;;14.27;5.50;;;;;;;1.41;47.70;98020.47;5073244;28;20520;-37
2022/03/12 10:00:31;;;;;;;6.97;4.83;;;;;;;1.37;47.77;98013.88;5073533;28;20443;-37
2022/03/12 10:02:58;;;;;;;4.60;3.30;;;;;;;1.53;49.44;98011.44;5073127;28;20530;-37
2022/03/12 10:05:27;;;;;;;8.53;4.60;;;;;;;1.72;47.12;98027.94;5073545;28;20447;-37
2022/03/12 10:07:55;;;;;;;7.40;4.93;;;;;;;1.76;46.41;98024.06;5073430;28;20444;-39
2022/03/12 10:10:22;;;;;;;12.93;6.30;;;;;;;1.39;46.10;98020.59;5073205;28;20451;-40
2022/03/12 10:12:50;;;;;;;10.67;4.37;;;;;;;1.28;46.56;98027.84;5073069;28;20804;-37
2022/03/12 10:15:19;;;;;;;10.77;5.90;;;;;;;1.03;47.23;98024.94;5072933;28;21038;-37
2022/03/12 10:17:47;;;;;;;10.20;4.77;;;;;;;0.95;50.20;98040.56;5073346;28;20497;-40
2022/03/12 10:20:15;;;;;;;8.13;4.23;;;;;;;0.60;47.42;98019.38;5073377;28;20455;-37
2022/03/12 10:22:45;;;;;;;19.23;7.43;;;;;;;0.58;47.02;98002.16;5073088;28;20942;-37
2022/03/12 10:25:14;;;;;;;5.53;3.47;;;;;;;0.58;48.17;98010.00;5073278;28;20435;-37
2022/03/12 10:27:42;;;;;;;5.23;4.00;;;;;;;0.58;45.94;98010.00;5072929;28;20440;-38
2022/03/12 10:30:10;;;;;;;15.03;6.37;;;;;;;0.82;46.68;98010.31;5072947;28;20534;-37
2022/03/12 10:32:44;;;;;;;24.47;11.33;;;;;;;0.68;44.99;98002.94;5072910;28;20446;-38
2022/03/12 10:35:14;;;;;;;9.07;5.60;;;;;;;0.62;47.31;98000.91;5073991;28;20471;-37
2022/03/12 10:37:41;;;;;;;5.93;5.17;;;;;;;0.71;48.65;97994.84;5072798;28;20442;-37
2022/03/12 10:40:12;;;;;;;9.10;5.53;;;;;;;0.82;48.19;97988.59;5072831;28;20444;-37
2022/03/12 10:42:46;;;;;;;4.17;3.57;;;;;;;0.91;47.51;97977.25;5072734;28;20432;-37
2022/03/12 10:45:16;;;;;;;12.90;6.80;;;;;;;1.10;47.67;97997.25;5072719;28;20475;-37
2022/03/12 10:47:45;;;;;;;15.93;8.27;;;;;;;0.88;49.65;98002.84;5073330;28;20443;-37
2022/03/12 10:50:16;;;;;;;11.83;7.60;;;;;;;0.80;56.27;98001.00;5072775;28;20455;-37
2022/03/12 10:52:49;;;;;;;14.73;5.43;;;;;;;0.85;54.26;98003.16;5072792;28;20439;-37
2022/03/12 10:55:23;;;;;;;11.20;6.77;;;;;;;0.77;54.48;98004.69;5072671;28;20480;-37
2022/03/12 10:58:03;;;;;;;5.90;4.00;;;;;;;0.85;55.12;98003.97;5072676;28;20486;-37
2022/03/12 11:00:32;;;;;;;5.00;4.50;;;;;;;1.02;52.27;97997.16;5072760;28;20432;-36
2022/03/12 11:03:03;;;;;;;15.00;7.20;;;;;;;1.16;53.43;97996.66;5072836;28;20435;-36
2022/03/12 11:05:34;;;;;;;7.20;4.93;;;;;;;1.25;50.37;97994.97;5072640;28;20519;-38
2022/03/12 11:08:17;;;;;;;10.37;5.40;;;;;;;1.27;51.16;98002.63;5072556;28;20428;-38
2022/03/12 11:10:55;;;;;;;5.20;4.40;;;;;;;1.35;51.46;97990.47;5075209;28;20432;-39
2022/03/12 11:13:40;;;;;;;8.63;6.57;;;;;;;1.40;50.24;97992.66;5076138;28;20513;-38
2022/03/12 11:16:12;;;;;;;14.90;5.90;;;;;;;1.18;51.59;97979.03;5075879;28;20480;-38
2022/03/12 11:18:41;;;;;;;8.07;5.70;;;;;;;1.08;51.64;97962.56;5076015;28;20482;-38
2022/03/12 11:21:08;;;;;;;14.77;8.80;;;;;;;1.02;51.74;97984.06;5076171;28;20519;-38
2022/03/12 11:23:36;;;;;;;10.50;7.40;;;;;;;0.95;53.47;97977.78;5078545;28;20463;-38
2022/03/12 11:26:07;;;;;;;7.63;4.53;;;;;;;0.89;52.27;97973.16;5096181;28;20526;-37
2022/03/12 11:28:37;;;;;;;8.90;5.80;;;;;;;0.81;51.89;97982.53;5096362;28;20496;-38
2022/03/12 11:31:07;;;;;;;13.53;6.43;;;;;;;0.72;50.97;97977.34;5096075;28;20427;-38
2022/03/12 11:33:35;;;;;;;7.70;4.80;;;;;;;0.58;51.25;97965.56;5096012;28;20435;-37
2022/03/12 11:36:10;;;;;;;23.70;12.37;;;;;;;0.56;53.33;97975.34;5095889;28;20493;-38